sensor_id;sensor_type;location;lat;lon;timestamp;P1;durP1;ratioP1;P2;durP2;ratioP2
52208;SDS011;38507;53.132;6.394;2023-04-03T00:01:26;4.40;;;0.93;;
52208;SDS011;38507;53.132;6.394;2023-04-03T00:03:51;2.92;;;0.90;;
52208;SDS011;38507;53.132;6.394;2023-04-03T00:06:17;3.65;;;0.60;;
52208;SDS011;38507;53.132;6.394;2023-04-03T00:08:43;2.85;;;0.63;;
52208;SDS011;38507;53.132;6.394;2023-04-03T00:11:09;3.88;;;0.73;;
52208;SDS011;38507;53.132;6.394;2023-04-03T00:13:35;1.58;;;0.63;;
52208;SDS011;38507;53.132;6.394;2023-04-03T00:16:02;1.40;;;0.60;;
52208;SDS011;38507;53.132;6.394;2023-04-03T00:18:28;2.13;;;0.70;;
52208;SDS011;38507;53.132;6.394;2023-04-03T00:20:55;1.73;;;0.63;;
52208;SDS011;38507;53.132;6.394;2023-04-03T00:23:21;2.85;;;0.80;;
52208;SDS011;38507;53.132;6.394;2023-04-03T00:25:48;3.00;;;0.85;;
52208;SDS011;38507;53.132;6.394;2023-04-03T00:28:14;5.03;;;0.70;;
52208;SDS011;38507;53.132;6.394;2023-04-03T00:30:40;1.65;;;0.70;;
52208;SDS011;38507;53.132;6.394;2023-04-03T00:33:06;2.80;;;0.80;;
52208;SDS011;38507;53.132;6.394;2023-04-03T00:35:33;2.05;;;0.60;;
52208;SDS011;38507;53.132;6.394;2023-04-03T00:38:00;1.95;;;0.55;;
52208;SDS011;38507;53.132;6.394;2023-04-03T00:40:26;3.22;;;0.70;;
52208;SDS011;38507;53.132;6.394;2023-04-03T00:42:56;2.10;;;0.77;;
52208;SDS011;38507;53.132;6.394;2023-04-03T00:45:28;3.15;;;0.68;;
52208;SDS011;38507;53.132;6.394;2023-04-03T00:48:03;3.67;;;0.80;;
52208;SDS011;38507;53.132;6.394;2023-04-03T00:50:31;3.15;;;0.80;;
52208;SDS011;38507;53.132;6.394;2023-04-03T00:52:59;3.60;;;0.95;;
52208;SDS011;38507;53.132;6.394;2023-04-03T00:55:26;4.63;;;0.80;;
52208;SDS011;38507;53.132;6.394;2023-04-03T00:57:52;3.17;;;0.68;;
52208;SDS011;38507;53.132;6.394;2023-04-03T01:00:20;3.45;;;0.85;;
52208;SDS011;38507;53.132;6.394;2023-04-03T01:02:47;2.92;;;0.95;;
52208;SDS011;38507;53.132;6.394;2023-04-03T01:05:13;3.35;;;0.80;;
52208;SDS011;38507;53.132;6.394;2023-04-03T01:07:41;2.55;;;0.70;;
52208;SDS011;38507;53.132;6.394;2023-04-03T01:10:08;4.90;;;1.00;;
52208;SDS011;38507;53.132;6.394;2023-04-03T01:12:37;3.92;;;0.75;;
52208;SDS011;38507;53.132;6.394;2023-04-03T01:15:06;1.98;;;0.77;;
52208;SDS011;38507;53.132;6.394;2023-04-03T01:17:43;4.30;;;0.90;;
52208;SDS011;38507;53.132;6.394;2023-04-03T01:25:37;3.25;;;0.95;;
52208;SDS011;38507;53.132;6.394;2023-04-03T01:28:06;5.78;;;1.15;;
52208;SDS011;38507;53.132;6.394;2023-04-03T01:30:36;3.42;;;0.95;;
52208;SDS011;38507;53.132;6.394;2023-04-03T01:33:15;4.22;;;1.45;;
52208;SDS011;38507;53.132;6.394;2023-04-03T01:35:41;3.95;;;0.85;;
52208;SDS011;38507;53.132;6.394;2023-04-03T01:38:06;2.72;;;0.80;;
52208;SDS011;38507;53.132;6.394;2023-04-03T01:40:32;3.92;;;0.80;;
52208;SDS011;38507;53.132;6.394;2023-04-03T01:42:58;4.82;;;1.10;;
52208;SDS011;38507;53.132;6.394;2023-04-03T01:45:23;2.53;;;1.02;;
52208;SDS011;38507;53.132;6.394;2023-04-03T01:47:49;3.22;;;0.95;;
52208;SDS011;38507;53.132;6.394;2023-04-03T01:50:16;4.57;;;0.90;;
52208;SDS011;38507;53.132;6.394;2023-04-03T01:52:41;6.90;;;1.45;;
52208;SDS011;38507;53.132;6.394;2023-04-03T01:55:07;4.50;;;0.90;;
52208;SDS011;38507;53.132;6.394;2023-04-03T01:57:33;4.03;;;0.80;;
52208;SDS011;38507;53.132;6.394;2023-04-03T01:59:59;2.75;;;0.82;;
52208;SDS011;38507;53.132;6.394;2023-04-03T02:02:24;5.00;;;1.20;;
52208;SDS011;38507;53.132;6.394;2023-04-03T02:04:50;4.82;;;1.00;;
52208;SDS011;38507;53.132;6.394;2023-04-03T02:07:16;4.20;;;1.20;;
52208;SDS011;38507;53.132;6.394;2023-04-03T02:09:41;3.35;;;0.90;;
52208;SDS011;38507;53.132;6.394;2023-04-03T02:12:07;4.60;;;0.93;;
52208;SDS011;38507;53.132;6.394;2023-04-03T02:14:33;4.47;;;1.00;;
52208;SDS011;38507;53.132;6.394;2023-04-03T02:16:59;6.18;;;1.17;;
52208;SDS011;38507;53.132;6.394;2023-04-03T02:19:26;3.00;;;1.10;;
52208;SDS011;38507;53.132;6.394;2023-04-03T02:21:51;4.85;;;0.90;;
52208;SDS011;38507;53.132;6.394;2023-04-03T02:24:17;6.25;;;1.20;;
52208;SDS011;38507;53.132;6.394;2023-04-03T02:26:42;3.30;;;1.00;;
52208;SDS011;38507;53.132;6.394;2023-04-03T02:29:08;5.65;;;1.25;;
52208;SDS011;38507;53.132;6.394;2023-04-03T02:31:34;8.07;;;1.15;;
52208;SDS011;38507;53.132;6.394;2023-04-03T02:33:59;4.32;;;1.20;;
52208;SDS011;38507;53.132;6.394;2023-04-03T02:36:25;5.53;;;1.20;;
52208;SDS011;38507;53.132;6.394;2023-04-03T02:38:50;5.38;;;1.42;;
52208;SDS011;38507;53.132;6.394;2023-04-03T02:41:16;3.70;;;0.98;;
52208;SDS011;38507;53.132;6.394;2023-04-03T02:43:42;6.15;;;1.23;;
52208;SDS011;38507;53.132;6.394;2023-04-03T02:46:07;6.05;;;1.02;;
52208;SDS011;38507;53.132;6.394;2023-04-03T02:48:33;5.05;;;0.95;;
52208;SDS011;38507;53.132;6.394;2023-04-03T02:51:00;8.52;;;1.50;;
52208;SDS011;38507;53.132;6.394;2023-04-03T02:53:26;8.38;;;1.50;;
52208;SDS011;38507;53.132;6.394;2023-04-03T02:55:52;6.82;;;1.45;;
52208;SDS011;38507;53.132;6.394;2023-04-03T02:58:17;7.22;;;1.38;;
52208;SDS011;38507;53.132;6.394;2023-04-03T03:00:43;8.32;;;1.42;;
52208;SDS011;38507;53.132;6.394;2023-04-03T03:03:09;6.72;;;1.48;;
52208;SDS011;38507;53.132;6.394;2023-04-03T03:05:34;5.50;;;1.40;;
52208;SDS011;38507;53.132;6.394;2023-04-03T03:08:01;7.75;;;1.42;;
52208;SDS011;38507;53.132;6.394;2023-04-03T03:10:26;3.83;;;1.20;;
52208;SDS011;38507;53.132;6.394;2023-04-03T03:12:52;5.32;;;1.13;;
52208;SDS011;38507;53.132;6.394;2023-04-03T03:15:18;3.80;;;1.35;;
52208;SDS011;38507;53.132;6.394;2023-04-03T03:17:44;5.15;;;1.58;;
52208;SDS011;38507;53.132;6.394;2023-04-03T03:20:10;8.50;;;1.83;;
52208;SDS011;38507;53.132;6.394;2023-04-03T03:22:37;4.38;;;1.40;;
52208;SDS011;38507;53.132;6.394;2023-04-03T03:25:03;9.75;;;1.58;;
52208;SDS011;38507;53.132;6.394;2023-04-03T03:27:29;6.82;;;1.42;;
52208;SDS011;38507;53.132;6.394;2023-04-03T03:29:54;4.93;;;1.42;;
52208;SDS011;38507;53.132;6.394;2023-04-03T03:32:20;5.95;;;1.40;;
52208;SDS011;38507;53.132;6.394;2023-04-03T03:34:45;4.93;;;1.60;;
52208;SDS011;38507;53.132;6.394;2023-04-03T03:37:11;5.72;;;1.50;;
52208;SDS011;38507;53.132;6.394;2023-04-03T03:39:37;5.47;;;1.33;;
52208;SDS011;38507;53.132;6.394;2023-04-03T03:42:02;6.93;;;1.52;;
52208;SDS011;38507;53.132;6.394;2023-04-03T03:44:28;8.60;;;1.50;;
52208;SDS011;38507;53.132;6.394;2023-04-03T03:46:54;7.75;;;1.42;;
52208;SDS011;38507;53.132;6.394;2023-04-03T03:49:21;8.07;;;2.03;;
52208;SDS011;38507;53.132;6.394;2023-04-03T03:51:46;10.50;;;1.88;;
52208;SDS011;38507;53.132;6.394;2023-04-03T03:54:12;6.72;;;1.63;;
52208;SDS011;38507;53.132;6.394;2023-04-03T03:56:38;6.38;;;2.03;;
52208;SDS011;38507;53.132;6.394;2023-04-03T03:59:04;5.38;;;1.40;;
52208;SDS011;38507;53.132;6.394;2023-04-03T04:01:31;5.85;;;1.85;;
52208;SDS011;38507;53.132;6.394;2023-04-03T04:03:57;6.95;;;2.13;;
52208;SDS011;38507;53.132;6.394;2023-04-03T04:06:22;8.65;;;2.05;;
52208;SDS011;38507;53.132;6.394;2023-04-03T04:08:48;5.18;;;1.58;;
52208;SDS011;38507;53.132;6.394;2023-04-03T04:11:14;10.15;;;1.92;;
52208;SDS011;38507;53.132;6.394;2023-04-03T04:13:40;6.57;;;1.67;;
52208;SDS011;38507;53.132;6.394;2023-04-03T04:16:06;8.10;;;1.80;;
52208;SDS011;38507;53.132;6.394;2023-04-03T04:18:32;7.95;;;1.65;;
52208;SDS011;38507;53.132;6.394;2023-04-03T04:20:58;5.68;;;1.63;;
52208;SDS011;38507;53.132;6.394;2023-04-03T04:23:24;8.68;;;1.98;;
52208;SDS011;38507;53.132;6.394;2023-04-03T04:25:50;4.38;;;1.48;;
52208;SDS011;38507;53.132;6.394;2023-04-03T04:28:15;5.72;;;1.88;;
52208;SDS011;38507;53.132;6.394;2023-04-03T04:30:41;4.95;;;1.77;;
52208;SDS011;38507;53.132;6.394;2023-04-03T04:33:07;5.75;;;1.70;;
52208;SDS011;38507;53.132;6.394;2023-04-03T04:35:33;6.50;;;1.50;;
52208;SDS011;38507;53.132;6.394;2023-04-03T04:37:59;9.93;;;2.40;;
52208;SDS011;38507;53.132;6.394;2023-04-03T04:40:25;9.25;;;1.92;;
52208;SDS011;38507;53.132;6.394;2023-04-03T04:42:51;5.47;;;1.58;;
52208;SDS011;38507;53.132;6.394;2023-04-03T04:45:17;6.05;;;1.60;;
52208;SDS011;38507;53.132;6.394;2023-04-03T04:47:43;6.85;;;1.83;;
52208;SDS011;38507;53.132;6.394;2023-04-03T04:50:09;4.40;;;1.48;;
52208;SDS011;38507;53.132;6.394;2023-04-03T04:52:35;3.75;;;1.50;;
52208;SDS011;38507;53.132;6.394;2023-04-03T04:55:00;14.13;;;2.03;;
52208;SDS011;38507;53.132;6.394;2023-04-03T04:57:26;6.70;;;1.70;;
52208;SDS011;38507;53.132;6.394;2023-04-03T04:59:52;7.53;;;1.80;;
52208;SDS011;38507;53.132;6.394;2023-04-03T05:02:18;6.88;;;1.88;;
52208;SDS011;38507;53.132;6.394;2023-04-03T05:04:43;8.20;;;1.60;;
52208;SDS011;38507;53.132;6.394;2023-04-03T05:07:09;8.48;;;1.85;;
52208;SDS011;38507;53.132;6.394;2023-04-03T05:09:35;4.28;;;1.80;;
52208;SDS011;38507;53.132;6.394;2023-04-03T05:12:00;5.38;;;1.85;;
52208;SDS011;38507;53.132;6.394;2023-04-03T05:14:28;7.10;;;2.20;;
52208;SDS011;38507;53.132;6.394;2023-04-03T05:16:53;5.60;;;1.67;;
52208;SDS011;38507;53.132;6.394;2023-04-03T05:19:22;7.72;;;2.38;;
52208;SDS011;38507;53.132;6.394;2023-04-03T05:21:48;7.40;;;2.40;;
52208;SDS011;38507;53.132;6.394;2023-04-03T05:24:14;8.68;;;2.58;;
52208;SDS011;38507;53.132;6.394;2023-04-03T05:26:41;8.55;;;2.38;;
52208;SDS011;38507;53.132;6.394;2023-04-03T05:29:07;5.80;;;2.00;;
52208;SDS011;38507;53.132;6.394;2023-04-03T05:31:33;8.50;;;2.30;;
52208;SDS011;38507;53.132;6.394;2023-04-03T05:33:59;9.32;;;2.03;;
52208;SDS011;38507;53.132;6.394;2023-04-03T05:36:25;6.28;;;1.83;;
52208;SDS011;38507;53.132;6.394;2023-04-03T05:38:51;7.57;;;2.00;;
52208;SDS011;38507;53.132;6.394;2023-04-03T05:41:17;9.52;;;2.20;;
52208;SDS011;38507;53.132;6.394;2023-04-03T05:43:43;5.88;;;2.25;;
52208;SDS011;38507;53.132;6.394;2023-04-03T05:46:12;14.00;;;2.30;;
52208;SDS011;38507;53.132;6.394;2023-04-03T05:48:43;6.23;;;2.27;;
52208;SDS011;38507;53.132;6.394;2023-04-03T05:51:16;6.97;;;2.13;;
52208;SDS011;38507;53.132;6.394;2023-04-03T05:56:25;6.75;;;1.92;;
52208;SDS011;38507;53.132;6.394;2023-04-03T05:58:50;10.30;;;2.35;;
52208;SDS011;38507;53.132;6.394;2023-04-03T06:01:16;9.73;;;2.22;;
52208;SDS011;38507;53.132;6.394;2023-04-03T06:03:42;7.32;;;2.25;;
52208;SDS011;38507;53.132;6.394;2023-04-03T06:06:07;8.88;;;2.60;;
52208;SDS011;38507;53.132;6.394;2023-04-03T06:08:36;8.90;;;2.55;;
52208;SDS011;38507;53.132;6.394;2023-04-03T06:11:03;7.68;;;2.72;;
52208;SDS011;38507;53.132;6.394;2023-04-03T06:13:29;5.57;;;2.35;;
52208;SDS011;38507;53.132;6.394;2023-04-03T06:15:54;7.95;;;3.05;;
52208;SDS011;38507;53.132;6.394;2023-04-03T06:18:21;12.15;;;2.92;;
52208;SDS011;38507;53.132;6.394;2023-04-03T06:20:46;9.57;;;2.83;;
52208;SDS011;38507;53.132;6.394;2023-04-03T06:23:12;9.07;;;2.83;;
52208;SDS011;38507;53.132;6.394;2023-04-03T06:25:37;10.35;;;3.05;;
52208;SDS011;38507;53.132;6.394;2023-04-03T06:28:03;7.18;;;2.42;;
52208;SDS011;38507;53.132;6.394;2023-04-03T06:30:29;12.65;;;2.67;;
52208;SDS011;38507;53.132;6.394;2023-04-03T06:32:54;9.05;;;2.50;;
52208;SDS011;38507;53.132;6.394;2023-04-03T06:35:20;9.82;;;2.72;;
52208;SDS011;38507;53.132;6.394;2023-04-03T06:37:48;10.90;;;2.63;;
52208;SDS011;38507;53.132;6.394;2023-04-03T06:40:21;12.05;;;2.60;;
52208;SDS011;38507;53.132;6.394;2023-04-03T06:42:49;8.43;;;2.60;;
52208;SDS011;38507;53.132;6.394;2023-04-03T06:45:14;7.40;;;2.45;;
52208;SDS011;38507;53.132;6.394;2023-04-03T06:47:40;9.93;;;2.28;;
52208;SDS011;38507;53.132;6.394;2023-04-03T06:50:06;9.70;;;2.80;;
52208;SDS011;38507;53.132;6.394;2023-04-03T06:52:33;8.38;;;2.33;;
52208;SDS011;38507;53.132;6.394;2023-04-03T06:54:59;9.32;;;2.80;;
52208;SDS011;38507;53.132;6.394;2023-04-03T06:57:25;13.40;;;2.95;;
52208;SDS011;38507;53.132;6.394;2023-04-03T06:59:51;9.35;;;2.40;;
52208;SDS011;38507;53.132;6.394;2023-04-03T07:02:17;10.75;;;2.60;;
52208;SDS011;38507;53.132;6.394;2023-04-03T07:04:42;8.00;;;2.38;;
52208;SDS011;38507;53.132;6.394;2023-04-03T07:07:08;8.93;;;2.50;;
52208;SDS011;38507;53.132;6.394;2023-04-03T07:09:33;8.38;;;2.55;;
52208;SDS011;38507;53.132;6.394;2023-04-03T07:11:59;6.20;;;2.00;;
52208;SDS011;38507;53.132;6.394;2023-04-03T07:14:25;5.53;;;1.73;;
52208;SDS011;38507;53.132;6.394;2023-04-03T07:16:51;6.60;;;1.90;;
52208;SDS011;38507;53.132;6.394;2023-04-03T07:19:16;8.82;;;2.15;;
52208;SDS011;38507;53.132;6.394;2023-04-03T07:21:43;8.05;;;1.80;;
52208;SDS011;38507;53.132;6.394;2023-04-03T07:24:09;4.82;;;1.50;;
52208;SDS011;38507;53.132;6.394;2023-04-03T07:26:35;6.88;;;2.42;;
52208;SDS011;38507;53.132;6.394;2023-04-03T07:29:01;6.22;;;1.40;;
52208;SDS011;38507;53.132;6.394;2023-04-03T07:31:27;7.70;;;1.75;;
52208;SDS011;38507;53.132;6.394;2023-04-03T07:33:53;4.78;;;1.55;;
52208;SDS011;38507;53.132;6.394;2023-04-03T07:36:20;4.82;;;1.60;;
52208;SDS011;38507;53.132;6.394;2023-04-03T07:38:47;7.50;;;1.75;;
52208;SDS011;38507;53.132;6.394;2023-04-03T07:41:17;6.50;;;1.52;;
52208;SDS011;38507;53.132;6.394;2023-04-03T07:43:45;7.45;;;1.70;;
52208;SDS011;38507;53.132;6.394;2023-04-03T07:46:12;10.68;;;2.22;;
52208;SDS011;38507;53.132;6.394;2023-04-03T07:48:37;6.45;;;1.50;;
52208;SDS011;38507;53.132;6.394;2023-04-03T07:51:04;4.60;;;1.65;;
52208;SDS011;38507;53.132;6.394;2023-04-03T07:53:30;6.43;;;1.70;;
52208;SDS011;38507;53.132;6.394;2023-04-03T07:55:57;4.45;;;1.45;;
52208;SDS011;38507;53.132;6.394;2023-04-03T07:58:23;7.43;;;1.98;;
52208;SDS011;38507;53.132;6.394;2023-04-03T08:00:50;4.53;;;1.77;;
52208;SDS011;38507;53.132;6.394;2023-04-03T08:03:16;4.28;;;1.52;;
52208;SDS011;38507;53.132;6.394;2023-04-03T08:05:46;5.43;;;1.45;;
52208;SDS011;38507;53.132;6.394;2023-04-03T08:08:14;5.40;;;1.60;;
52208;SDS011;38507;53.132;6.394;2023-04-03T08:10:42;6.00;;;1.63;;
52208;SDS011;38507;53.132;6.394;2023-04-03T08:13:07;4.00;;;1.42;;
52208;SDS011;38507;53.132;6.394;2023-04-03T08:15:34;9.07;;;1.80;;
52208;SDS011;38507;53.132;6.394;2023-04-03T08:18:00;9.68;;;1.83;;
52208;SDS011;38507;53.132;6.394;2023-04-03T08:20:27;7.32;;;1.33;;
52208;SDS011;38507;53.132;6.394;2023-04-03T08:22:53;4.57;;;1.35;;
52208;SDS011;38507;53.132;6.394;2023-04-03T08:25:19;7.72;;;1.55;;
52208;SDS011;38507;53.132;6.394;2023-04-03T08:27:45;8.25;;;2.10;;
52208;SDS011;38507;53.132;6.394;2023-04-03T08:30:11;3.95;;;1.33;;
52208;SDS011;38507;53.132;6.394;2023-04-03T08:32:37;5.65;;;1.60;;
52208;SDS011;38507;53.132;6.394;2023-04-03T08:35:04;4.93;;;1.40;;
52208;SDS011;38507;53.132;6.394;2023-04-03T08:37:30;5.47;;;1.17;;
52208;SDS011;38507;53.132;6.394;2023-04-03T08:39:56;4.93;;;1.23;;
52208;SDS011;38507;53.132;6.394;2023-04-03T08:45:17;9.10;;;1.88;;
52208;SDS011;38507;53.132;6.394;2023-04-03T08:50:58;3.38;;;1.10;;
52208;SDS011;38507;53.132;6.394;2023-04-03T08:53:29;4.65;;;1.40;;
52208;SDS011;38507;53.132;6.394;2023-04-03T08:55:58;7.97;;;1.42;;
52208;SDS011;38507;53.132;6.394;2023-04-03T08:58:41;7.13;;;1.23;;
52208;SDS011;38507;53.132;6.394;2023-04-03T09:01:27;4.80;;;1.30;;
52208;SDS011;38507;53.132;6.394;2023-04-03T09:04:00;3.97;;;1.00;;
52208;SDS011;38507;53.132;6.394;2023-04-03T09:06:27;3.08;;;1.10;;
52208;SDS011;38507;53.132;6.394;2023-04-03T09:09:04;6.47;;;1.40;;
52208;SDS011;38507;53.132;6.394;2023-04-03T09:23:28;2.97;;;0.90;;
52208;SDS011;38507;53.132;6.394;2023-04-03T09:28:51;4.60;;;1.10;;
52208;SDS011;38507;53.132;6.394;2023-04-03T09:33:51;5.80;;;1.17;;
52208;SDS011;38507;53.132;6.394;2023-04-03T09:39:14;3.35;;;1.02;;
52208;SDS011;38507;53.132;6.394;2023-04-03T09:41:42;2.95;;;0.80;;
52208;SDS011;38507;53.132;6.394;2023-04-03T09:44:25;3.15;;;0.73;;
52208;SDS011;38507;53.132;6.394;2023-04-03T09:46:53;4.22;;;0.90;;
52208;SDS011;38507;53.132;6.394;2023-04-03T09:49:19;6.95;;;1.00;;
52208;SDS011;38507;53.132;6.394;2023-04-03T09:51:44;6.78;;;1.70;;
52208;SDS011;38507;53.132;6.394;2023-04-03T09:54:30;5.18;;;1.13;;
52208;SDS011;38507;53.132;6.394;2023-04-03T09:56:56;5.72;;;1.15;;
52208;SDS011;38507;53.132;6.394;2023-04-03T09:59:26;4.32;;;1.05;;
52208;SDS011;38507;53.132;6.394;2023-04-03T10:01:59;4.65;;;1.15;;
52208;SDS011;38507;53.132;6.394;2023-04-03T10:04:36;4.80;;;1.10;;
52208;SDS011;38507;53.132;6.394;2023-04-03T10:07:04;3.63;;;0.77;;
52208;SDS011;38507;53.132;6.394;2023-04-03T10:10:03;5.43;;;1.13;;
52208;SDS011;38507;53.132;6.394;2023-04-03T10:13:03;3.25;;;0.95;;
52208;SDS011;38507;53.132;6.394;2023-04-03T10:15:32;2.25;;;0.98;;
52208;SDS011;38507;53.132;6.394;2023-04-03T10:18:08;5.38;;;1.20;;
52208;SDS011;38507;53.132;6.394;2023-04-03T10:20:54;1.67;;;0.82;;
52208;SDS011;38507;53.132;6.394;2023-04-03T10:23:33;4.80;;;0.80;;
52208;SDS011;38507;53.132;6.394;2023-04-03T10:32:16;3.78;;;0.95;;
52208;SDS011;38507;53.132;6.394;2023-04-03T10:34:44;1.67;;;0.70;;
52208;SDS011;38507;53.132;6.394;2023-04-03T10:37:13;2.70;;;0.80;;
52208;SDS011;38507;53.132;6.394;2023-04-03T10:39:54;3.38;;;0.82;;
52208;SDS011;38507;53.132;6.394;2023-04-03T10:42:28;4.07;;;0.82;;
52208;SDS011;38507;53.132;6.394;2023-04-03T10:45:15;1.63;;;0.52;;
52208;SDS011;38507;53.132;6.394;2023-04-03T10:53:39;2.25;;;0.70;;
52208;SDS011;38507;53.132;6.394;2023-04-03T10:56:15;2.20;;;0.70;;
52208;SDS011;38507;53.132;6.394;2023-04-03T10:58:52;1.88;;;0.60;;
52208;SDS011;38507;53.132;6.394;2023-04-03T11:01:35;1.20;;;0.60;;
52208;SDS011;38507;53.132;6.394;2023-04-03T11:04:06;1.75;;;0.60;;
52208;SDS011;38507;53.132;6.394;2023-04-03T11:06:37;1.88;;;0.50;;
52208;SDS011;38507;53.132;6.394;2023-04-03T11:11:53;1.75;;;0.57;;
52208;SDS011;38507;53.132;6.394;2023-04-03T11:14:26;1.40;;;0.50;;
52208;SDS011;38507;53.132;6.394;2023-04-03T11:19:49;3.05;;;0.80;;
52208;SDS011;38507;53.132;6.394;2023-04-03T11:22:45;3.55;;;0.77;;
52208;SDS011;38507;53.132;6.394;2023-04-03T11:25:22;3.22;;;0.80;;
52208;SDS011;38507;53.132;6.394;2023-04-03T11:27:52;5.53;;;0.90;;
52208;SDS011;38507;53.132;6.394;2023-04-03T11:30:25;3.13;;;0.63;;
52208;SDS011;38507;53.132;6.394;2023-04-03T11:36:00;1.83;;;0.80;;
52208;SDS011;38507;53.132;6.394;2023-04-03T11:38:43;4.28;;;0.68;;
52208;SDS011;38507;53.132;6.394;2023-04-03T11:41:11;3.25;;;0.80;;
52208;SDS011;38507;53.132;6.394;2023-04-03T11:43:42;2.70;;;0.52;;
52208;SDS011;38507;53.132;6.394;2023-04-03T12:13:34;2.90;;;0.90;;
52208;SDS011;38507;53.132;6.394;2023-04-03T12:16:27;2.78;;;0.80;;
52208;SDS011;38507;53.132;6.394;2023-04-03T12:19:03;2.53;;;0.70;;
52208;SDS011;38507;53.132;6.394;2023-04-03T12:26:36;1.98;;;0.70;;
52208;SDS011;38507;53.132;6.394;2023-04-03T12:47:47;5.40;;;0.85;;
52208;SDS011;38507;53.132;6.394;2023-04-03T12:50:29;1.95;;;0.60;;
52208;SDS011;38507;53.132;6.394;2023-04-03T12:55:28;3.10;;;0.70;;
52208;SDS011;38507;53.132;6.394;2023-04-03T12:57:54;2.22;;;0.85;;
52208;SDS011;38507;53.132;6.394;2023-04-03T13:02:52;4.28;;;0.90;;
52208;SDS011;38507;53.132;6.394;2023-04-03T13:05:18;3.17;;;0.90;;
52208;SDS011;38507;53.132;6.394;2023-04-03T13:08:01;2.63;;;0.82;;
52208;SDS011;38507;53.132;6.394;2023-04-03T13:10:35;4.93;;;0.80;;
52208;SDS011;38507;53.132;6.394;2023-04-03T13:13:28;3.22;;;0.80;;
52208;SDS011;38507;53.132;6.394;2023-04-03T13:15:54;3.97;;;0.90;;
52208;SDS011;38507;53.132;6.394;2023-04-03T13:59:06;5.40;;;0.93;;
52208;SDS011;38507;53.132;6.394;2023-04-03T14:06:45;2.15;;;0.90;;
52208;SDS011;38507;53.132;6.394;2023-04-03T14:09:12;3.45;;;1.00;;
52208;SDS011;38507;53.132;6.394;2023-04-03T14:11:38;2.97;;;1.02;;
52208;SDS011;38507;53.132;6.394;2023-04-03T14:14:16;3.72;;;0.85;;
52208;SDS011;38507;53.132;6.394;2023-04-03T14:16:47;2.63;;;0.80;;
52208;SDS011;38507;53.132;6.394;2023-04-03T14:19:19;2.03;;;0.68;;
52208;SDS011;38507;53.132;6.394;2023-04-03T14:21:47;2.05;;;0.65;;
52208;SDS011;38507;53.132;6.394;2023-04-03T14:24:13;1.80;;;0.70;;
52208;SDS011;38507;53.132;6.394;2023-04-03T14:26:39;2.63;;;0.90;;
52208;SDS011;38507;53.132;6.394;2023-04-03T14:29:06;3.78;;;0.70;;
52208;SDS011;38507;53.132;6.394;2023-04-03T14:31:31;2.83;;;0.90;;
52208;SDS011;38507;53.132;6.394;2023-04-03T14:33:57;4.60;;;0.80;;
52208;SDS011;38507;53.132;6.394;2023-04-03T14:36:23;3.22;;;1.10;;
52208;SDS011;38507;53.132;6.394;2023-04-03T14:38:52;2.08;;;0.73;;
52208;SDS011;38507;53.132;6.394;2023-04-03T14:41:20;3.25;;;0.88;;
52208;SDS011;38507;53.132;6.394;2023-04-03T14:43:48;3.92;;;0.82;;
52208;SDS011;38507;53.132;6.394;2023-04-03T14:48:42;3.13;;;1.02;;
52208;SDS011;38507;53.132;6.394;2023-04-03T14:51:12;3.05;;;1.10;;
52208;SDS011;38507;53.132;6.394;2023-04-03T14:53:39;4.53;;;1.10;;
52208;SDS011;38507;53.132;6.394;2023-04-03T14:56:13;5.13;;;1.15;;
52208;SDS011;38507;53.132;6.394;2023-04-03T14:58:44;4.00;;;0.90;;
52208;SDS011;38507;53.132;6.394;2023-04-03T15:01:13;4.15;;;0.80;;
52208;SDS011;38507;53.132;6.394;2023-04-03T15:03:39;3.72;;;1.00;;
52208;SDS011;38507;53.132;6.394;2023-04-03T15:06:04;5.45;;;1.23;;
52208;SDS011;38507;53.132;6.394;2023-04-03T15:08:30;6.88;;;0.98;;
52208;SDS011;38507;53.132;6.394;2023-04-03T15:10:56;4.50;;;1.10;;
52208;SDS011;38507;53.132;6.394;2023-04-03T15:13:22;8.13;;;1.15;;
52208;SDS011;38507;53.132;6.394;2023-04-03T15:15:49;6.20;;;1.33;;
52208;SDS011;38507;53.132;6.394;2023-04-03T15:18:18;2.22;;;0.80;;
52208;SDS011;38507;53.132;6.394;2023-04-03T15:20:47;3.65;;;0.80;;
52208;SDS011;38507;53.132;6.394;2023-04-03T15:23:13;2.70;;;0.93;;
52208;SDS011;38507;53.132;6.394;2023-04-03T15:25:41;3.25;;;0.80;;
52208;SDS011;38507;53.132;6.394;2023-04-03T15:28:09;2.95;;;0.80;;
52208;SDS011;38507;53.132;6.394;2023-04-03T15:33:08;3.42;;;1.25;;
52208;SDS011;38507;53.132;6.394;2023-04-03T15:35:34;1.88;;;0.80;;
52208;SDS011;38507;53.132;6.394;2023-04-03T15:37:59;3.35;;;0.82;;
52208;SDS011;38507;53.132;6.394;2023-04-03T15:40:25;2.10;;;1.00;;
52208;SDS011;38507;53.132;6.394;2023-04-03T15:42:51;3.75;;;0.88;;
52208;SDS011;38507;53.132;6.394;2023-04-03T15:45:16;4.30;;;1.17;;
52208;SDS011;38507;53.132;6.394;2023-04-03T15:47:42;3.55;;;1.00;;
52208;SDS011;38507;53.132;6.394;2023-04-03T15:50:08;7.28;;;1.60;;
52208;SDS011;38507;53.132;6.394;2023-04-03T15:52:35;4.35;;;1.30;;
52208;SDS011;38507;53.132;6.394;2023-04-03T15:55:01;2.80;;;1.20;;
52208;SDS011;38507;53.132;6.394;2023-04-03T15:57:26;3.83;;;1.38;;
52208;SDS011;38507;53.132;6.394;2023-04-03T15:59:53;3.22;;;0.90;;
52208;SDS011;38507;53.132;6.394;2023-04-03T16:02:19;3.30;;;0.95;;
52208;SDS011;38507;53.132;6.394;2023-04-03T16:04:44;6.15;;;1.30;;
52208;SDS011;38507;53.132;6.394;2023-04-03T16:07:10;2.28;;;1.00;;
52208;SDS011;38507;53.132;6.394;2023-04-03T16:09:36;2.65;;;0.80;;
52208;SDS011;38507;53.132;6.394;2023-04-03T16:12:02;5.47;;;1.02;;
52208;SDS011;38507;53.132;6.394;2023-04-03T16:14:28;3.63;;;1.30;;
52208;SDS011;38507;53.132;6.394;2023-04-03T16:16:55;3.25;;;1.13;;
52208;SDS011;38507;53.132;6.394;2023-04-03T16:19:21;3.88;;;0.80;;
52208;SDS011;38507;53.132;6.394;2023-04-03T16:21:47;4.25;;;1.42;;
52208;SDS011;38507;53.132;6.394;2023-04-03T16:24:13;2.75;;;1.38;;
52208;SDS011;38507;53.132;6.394;2023-04-03T16:26:39;3.72;;;1.38;;
52208;SDS011;38507;53.132;6.394;2023-04-03T16:29:05;3.17;;;1.20;;
52208;SDS011;38507;53.132;6.394;2023-04-03T16:31:31;3.58;;;0.90;;
52208;SDS011;38507;53.132;6.394;2023-04-03T16:33:57;3.63;;;1.10;;
52208;SDS011;38507;53.132;6.394;2023-04-03T16:36:23;3.03;;;0.80;;
52208;SDS011;38507;53.132;6.394;2023-04-03T16:38:50;2.85;;;0.85;;
52208;SDS011;38507;53.132;6.394;2023-04-03T16:41:16;3.03;;;0.88;;
52208;SDS011;38507;53.132;6.394;2023-04-03T16:43:42;2.78;;;0.70;;
52208;SDS011;38507;53.132;6.394;2023-04-03T16:46:07;4.35;;;0.93;;
52208;SDS011;38507;53.132;6.394;2023-04-03T16:48:33;4.65;;;0.70;;
52208;SDS011;38507;53.132;6.394;2023-04-03T16:50:59;7.13;;;1.17;;
52208;SDS011;38507;53.132;6.394;2023-04-03T16:53:25;3.45;;;0.77;;
52208;SDS011;38507;53.132;6.394;2023-04-03T16:55:51;4.43;;;1.10;;
52208;SDS011;38507;53.132;6.394;2023-04-03T16:58:17;4.35;;;1.30;;
52208;SDS011;38507;53.132;6.394;2023-04-03T17:00:44;5.40;;;1.15;;
52208;SDS011;38507;53.132;6.394;2023-04-03T17:03:09;3.85;;;0.95;;
52208;SDS011;38507;53.132;6.394;2023-04-03T17:05:35;4.00;;;0.95;;
52208;SDS011;38507;53.132;6.394;2023-04-03T17:08:01;5.18;;;0.95;;
52208;SDS011;38507;53.132;6.394;2023-04-03T17:10:27;3.03;;;0.80;;
52208;SDS011;38507;53.132;6.394;2023-04-03T17:12:53;5.85;;;1.00;;
52208;SDS011;38507;53.132;6.394;2023-04-03T17:15:19;3.20;;;0.90;;
52208;SDS011;38507;53.132;6.394;2023-04-03T17:17:45;3.03;;;0.77;;
52208;SDS011;38507;53.132;6.394;2023-04-03T17:20:12;6.50;;;1.00;;
52208;SDS011;38507;53.132;6.394;2023-04-03T17:22:38;4.68;;;1.05;;
52208;SDS011;38507;53.132;6.394;2023-04-03T17:25:04;3.40;;;1.10;;
52208;SDS011;38507;53.132;6.394;2023-04-03T17:27:30;3.55;;;0.95;;
52208;SDS011;38507;53.132;6.394;2023-04-03T17:29:56;3.78;;;1.00;;
52208;SDS011;38507;53.132;6.394;2023-04-03T17:32:21;4.28;;;1.60;;
52208;SDS011;38507;53.132;6.394;2023-04-03T17:34:47;3.92;;;1.02;;